Newsom, North Carolina
Current Conditions -  °F | °C
As of 2:55 PM on Saturday 25 Oct 2014 (Local Time) from KHBI Reporting Station
Clear Clear  
Wind Chill: 70°   Ceiling: Unl
Heat Index: 70°   Visibility: 10mi
Dew Point: 32°   Wind: 3mph
Humidity: 25%   Direction: 300°WNW
Pressure: 29.97"   Gusts: NA
Location:  35.6015°N, 80.0858°W
Report Text: KHBI 251855Z AUTO 30003KT 10SM CLR 21/00 A2997 RMK AO2 T02100001
Loading
Personal Weather Stations






























Interactive Weather Map
Tropical Storm Tracking
New forecast layout! Learn more

10-Day Weather Forecast

Advertisements
Track Severe Weather on mobile